Ackermanville, PA

6:01 PM EDT on June 03, 2015 (GMT -0400)
Callie's Farm | | Change Station
CLOSE
Current Station
Personal Weather Station
Location: Bangor, PA
Elevation: 725 ft
Nearby Weather Stations

Elev 725 ft 40.87 °N, 75.17 °W | Updated 1 minute ago

Clear
Clear
73.5 °F
Feels Like 74 °F
N
2.0
Wind Variable Wind from SW
Gusts 4.0 mph

Today
High -- | Low -- °F
--% Chance of Precip.
Yesterday
High -- | Low -- °F
Precip. -- in
5:30 AM 8:27 PM
Full, 98% visible
Pressure 30.16 in
Visibility 10.0 miles
Clouds Clear
Heat Index 74 °F
Dew Point 67 °F
Humidity 80%
Rainfall 0.00 in
Snow Depth Not available.
UV 3 out of 12
Pollen 7.10 out of 12
Air Quality Not available.
Flu Activity Sporadic
METAR KABE 032151Z 17007KT 10SM CLR 21/11 A3016 RMK AO2 SLP212 T02060111

More Conditions Fewer Conditions

Pressure 30.16 in
Visibility 10.0 miles
Clouds Clear
Heat Index 74 °F
Dew Point 67 °F
Humidity 80%
Rainfall 0.00 in
Snow Depth Not available.
UV 3 out of 12
Pollen 7.10 out of 12
Air Quality Not available.
Flu Activity Sporadic
METAR KABE 032151Z 17007KT 10SM CLR 21/11 A3016 RMK AO2 SLP212 T02060111

More Conditions Fewer Conditions

10-Day Weather Forecast

×

Almanac

Astronomy

Jun. 03, 2015 Rise Set
Actual Time
Civil Twilight
Nautical Twilight
Astronomical Twilight
Moon
Length of Visible Light
Length of Day
Tomorrow will be .
, % of the Moon is Illuminated

Today's Extremes

State Highs State Lows

Community

WunderPhotos

Upload Photos

1,826,291 photos uploaded!

WunderBlogs® & News

Nearby

Air Quality

  Air Quality AQ Index Pollutant
Not available.

Snow Depth

Station Depth Elevation

Earthquake Activity

City Distance Mag. Time & Date
Minimum magnitude displayed is 2.5.

Coastal Water Temperatures

Place Temperature

Stations

Nearby Weather Stations

Station Location Temp. Windchill Dew Point Humidity Wind Precip. Elev Updated Type